メインページ
METAR-TAF:

METAR-TAF

空港 :

ハラレ国際空港

ハラレ, ジンバブエ

緯度: 17-55S, 経度: 031-08E, 海抜: 1479m

現時点の気象観測

当レポートは1時間33分前の17:00(UTC)に作成
北東の風 5kt
気温 17°C
湿度 42%
気圧 1027 hPa
視程10km以上
1,500メートル以下は雲なし、積乱雲なし

METAR: FVHA 151700Z 05005KT CAVOK 17/04 Q1027 NOSIG

時間: 20:33 (18:33 UTC)

予報

当レポートは2時間33分前の16:00(UTC)に作成
予報は15日の 18時(UTC)から 16日の 24時(UTC)まで有効
東/北東の風 8kt
視程10km以上
1,500メートル以下は雲なし、積乱雲なし

TAF: FVHA 151600Z 1518/1624 06008KT CAVOK

4,000以上の空港の気象観測と天気予報(METAR報とTAF報)

利用可能な観測所は地図上に黄色い丸と赤い丸で示す。

丸の上にカーソルを重ねると観測所名を参照できる。

次にクリックすると気象観測と天気予報を参照できる。

マップの切り替え:黒色「×」印の緑ボタンをクリックして拡大、「-」印の緑ボタンをクリックして縮小、緑色の三角印をクリックして隣りの地図に切り替え


METAR-TAF: